WetterOnline ( https://www.wetteronline.ch )

Wetter aktuell Greifswalder Bodden

Aktuelles Wetter: Greifswalder Oie (12m)

6-stündlich | Neueste Meldungen
Ortszeit Temperatur Wetter
Di, 23.04. 20:00 12.5° C bewölkt
Di, 23.04. 14:00 11.6° C wolkenlos
Di, 23.04. 8:00 9.7° C wolkenlos
Di, 23.04. 2:00 10.2° C wolkenlos
Mo, 22.04. 20:00 8.9° C wolkenlos
Mo, 22.04. 14:00 10.4° C wolkenlos
Mo, 22.04. 8:00 8.4° C fast wolkenlos
Mo, 22.04. 2:00 9.8° C wolkig
Ortszeit Temperatur Wetter
Di, 23.04. 20:10 12.2° C wolkig
Di, 23.04. 20:00 12.5° C bewölkt
Di, 23.04. 19:50 12.5° C bewölkt
Di, 23.04. 19:40 12.7° C bedeckt
Di, 23.04. 19:30 11.9° C bewölkt
Di, 23.04. 19:20 11.9° C bewölkt
Di, 23.04. 19:00 11.5° C bewölkt
Di, 23.04. 18:30 12.1° C bewölkt
Di, 23.04. 18:00 11.6° C wolkig
Di, 23.04. 17:30 11.4° C fast wolkenlos
Di, 23.04. 17:00 10.8° C wolkenlos
Ortszeit Relative Feuchte Sichtweite
Di, 23.04. 20:00 67% 15 km
Di, 23.04. 14:00 68% 16 km
Di, 23.04. 8:00 69% 7 km
Di, 23.04. 2:00 75% 27 km
Mo, 22.04. 20:00 86% 19 km
Mo, 22.04. 14:00 72% 10 km
Mo, 22.04. 8:00 72% 15 km
Mo, 22.04. 2:00 53% 50 km
Ortszeit Relative Feuchte Sichtweite
Di, 23.04. 20:10 68% -
Di, 23.04. 20:00 67% 15 km
Di, 23.04. 19:50 67% -
Di, 23.04. 19:40 66% -
Di, 23.04. 19:30 70% 15 km
Di, 23.04. 19:20 70% -
Di, 23.04. 19:00 73% 13 km
Di, 23.04. 18:30 69% 13 km
Di, 23.04. 18:00 71% 11 km
Di, 23.04. 17:30 71% 11 km
Di, 23.04. 17:00 73% 15 km
Ortszeit Niederschlagsmenge Niederschlagsart
Di, 23.04. 20:00 0.1 l/m2 in 12 Std. Regen
Di, 23.04. 14:00 0.0 l/m2 in 6 Std. -
Di, 23.04. 8:00 0.0 l/m2 in 12 Std. -
Di, 23.04. 2:00 0.0 l/m2 in 6 Std. -
Mo, 22.04. 20:00 0.0 l/m2 in 12 Std. -
Mo, 22.04. 14:00 0.0 l/m2 in 6 Std. -
Mo, 22.04. 8:00 0.0 l/m2 in 12 Std. -
Mo, 22.04. 2:00 0.0 l/m2 in 6 Std. -
Ortszeit Niederschlagsmenge Niederschlagsart
Di, 23.04. 20:10 keine Meldung -
Di, 23.04. 20:00 0.1 l/m2 in 1 Std. Regen
Di, 23.04. 19:50 keine Meldung -
Di, 23.04. 19:40 keine Meldung -
Di, 23.04. 19:30 0.0 l/m2 in 1 Std. -
Di, 23.04. 19:20 keine Meldung -
Di, 23.04. 19:00 0.1 l/m2 in 1 Std. Regen
Di, 23.04. 18:30 0.0 l/m2 in 1 Std. -
Di, 23.04. 18:00 0.0 l/m2 in 1 Std. -
Di, 23.04. 17:30 0.0 l/m2 in 1 Std. -
Di, 23.04. 17:00 0.0 l/m2 in 1 Std. -
Ortszeit Stärke Spitze Richtung
km/h Bft. km/h Grad Sektor
Di, 23.04. 20:00 28 4 44 100° O
Di, 23.04. 14:00 29 5 54 70° O
Di, 23.04. 8:00 37 5 50 90° O
Di, 23.04. 2:00 31 5 44 100° O
Mo, 22.04. 20:00 22 4 47 80° O
Mo, 22.04. 14:00 28 4 37 70° O
Mo, 22.04. 8:00 22 4 36 110° O
Mo, 22.04. 2:00 11 2 14 20° N
Ortszeit Stärke Spitze Richtung
km/h Bft. km/h Grad Sektor
Di, 23.04. 20:10 28 4 - 100° O
Di, 23.04. 20:00 28 4 37 100° O
Di, 23.04. 19:50 28 4 - 100° O
Di, 23.04. 19:40 26 4 - 100° O
Di, 23.04. 19:30 22 4 32 110° O
Di, 23.04. 19:20 22 4 - 110° O
Di, 23.04. 19:00 18 3 32 110° O
Di, 23.04. 18:30 24 4 31 110° O
Di, 23.04. 18:00 24 4 39 100° O
Di, 23.04. 17:30 26 4 39 90° O
Di, 23.04. 17:00 28 4 44 80° O
Ortszeit Untergrenze Bedeckung Gattung
total tief tief mittel hoch
Di, 23.04. 20:00 1800 m 7/8 7/8 - - -
Di, 23.04. 14:00 - 0/8 0/8 - - -
Di, 23.04. 8:00 - 0/8 0/8 - - -
Di, 23.04. 2:00 - 0/8 0/8 - - -
Mo, 22.04. 20:00 - 0/8 0/8 - - -
Mo, 22.04. 14:00 - 0/8 0/8 - - -
Mo, 22.04. 8:00 12000 m 1/8 0/8 - - -
Mo, 22.04. 2:00 10500 m 8/8 0/8 - - -
Ortszeit Bedeckungsgrad in Achtel und Wolkenuntergrenze
Di, 23.04. 20:10 1(2100m) 7(3300m) 7(4500m)
Di, 23.04. 20:00 1(1800m) 7(2700m)
Di, 23.04. 19:50 1(1800m) 7(2700m)
Di, 23.04. 19:40 1(1800m) 8(2700m)
Di, 23.04. 19:30 1(1800m) 7(2700m)
Di, 23.04. 19:20 1(1800m) 7(2700m)
Di, 23.04. 19:00 2(1800m) 7(2700m) 7(3900m)
Di, 23.04. 18:30 7(2100m) 7(3300m) 7(3900m)
Di, 23.04. 18:00 5(2100m) 7(3600m)
Di, 23.04. 17:30 1(2100m)
Di, 23.04. 17:00 keine Wolken
Ortszeit Luftdruck NN (hPa) Tendenz (hPa in 3 Std.)
Di, 23.04. 20:00 1011 - 1,0
Di, 23.04. 14:00 1014 - 2,0
Di, 23.04. 8:00 1018 - 0,5
Di, 23.04. 2:00 1019 - 0,9
Mo, 22.04. 20:00 1019 - 0,4
Mo, 22.04. 14:00 1021 - 0,8
Mo, 22.04. 8:00 1021 + 0,8
Mo, 22.04. 2:00 1021 - 0,4
Ortszeit Luftdruck NN (hPa) Tendenz (hPa in 3 Std.)
Di, 23.04. 20:10 1011 keine Meldung
Di, 23.04. 20:00 1011 - 1,0
Di, 23.04. 19:50 1011 keine Meldung
Di, 23.04. 19:40 1011 keine Meldung
Di, 23.04. 19:30 1011 - 1,1
Di, 23.04. 19:20 1011 keine Meldung
Di, 23.04. 19:00 1011 - 1,1
Di, 23.04. 18:30 1011 - 1,6
Di, 23.04. 18:00 1012 - 1,8
Di, 23.04. 17:30 1012 - 2,0
Di, 23.04. 17:00 1012 - 2,1
Ortszeit Schneehöhe (cm)
Di, 23.04. 20:00 0
Di, 23.04. 14:00 0
Di, 23.04. 8:00 0
Di, 23.04. 2:00 0
Mo, 22.04. 20:00 0
Mo, 22.04. 14:00 0
Mo, 22.04. 8:00 0
Mo, 22.04. 2:00 0
Ortszeit Schneehöhe (cm)
Di, 23.04. 20:10 0
Di, 23.04. 20:00 0
Di, 23.04. 19:50 0
Di, 23.04. 19:40 0
Di, 23.04. 19:30 0
Di, 23.04. 19:20 0
Di, 23.04. 19:00 0
Di, 23.04. 18:30 0
Di, 23.04. 18:00 0
Di, 23.04. 17:30 0
Di, 23.04. 17:00 0
Link zu dieser Seite / Seite empfehlen

Das Wetter in ...